createdAt,value
2018-09-24T00:01:58.684Z,11.10
2018-09-24T00:04:26.750Z,11.10
2018-09-24T00:06:54.804Z,11.10
2018-09-24T00:09:22.864Z,11.00
2018-09-24T00:11:50.936Z,10.90
2018-09-24T00:14:18.987Z,10.90
2018-09-24T00:16:47.061Z,10.80
2018-09-24T00:19:15.149Z,10.80
2018-09-24T00:21:43.201Z,10.70
2018-09-24T00:24:11.252Z,10.70
2018-09-24T00:26:39.312Z,10.60
2018-09-24T00:29:07.612Z,10.60
2018-09-24T00:31:35.672Z,10.50
2018-09-24T00:34:03.729Z,10.60
2018-09-24T00:36:31.796Z,10.50
2018-09-24T00:38:59.845Z,10.50
2018-09-24T00:41:27.903Z,10.50
2018-09-24T00:43:55.971Z,10.50
2018-09-24T00:46:24.033Z,10.50
2018-09-24T00:48:52.085Z,10.40
2018-09-24T00:51:20.173Z,10.50
2018-09-24T00:53:48.227Z,10.50
2018-09-24T00:56:16.277Z,10.50
2018-09-24T00:58:44.340Z,10.60
2018-09-24T01:01:12.409Z,10.60
2018-09-24T01:03:40.469Z,10.60
2018-09-24T01:06:08.524Z,10.70
2018-09-24T01:08:36.573Z,10.70
2018-09-24T01:11:04.633Z,10.70
2018-09-24T01:13:32.704Z,10.80
2018-09-24T01:16:00.757Z,10.80
2018-09-24T01:18:28.796Z,10.90
2018-09-24T01:20:56.882Z,10.90
2018-09-24T01:23:24.945Z,10.90
2018-09-24T01:25:52.996Z,10.90
2018-09-24T01:28:21.052Z,10.80
2018-09-24T01:30:49.208Z,10.90
2018-09-24T01:33:17.276Z,10.90
2018-09-24T01:35:45.336Z,10.90
2018-09-24T01:38:13.387Z,10.90
2018-09-24T01:40:41.432Z,10.90
2018-09-24T01:43:09.504Z,11.00
2018-09-24T01:45:37.553Z,11.10
2018-09-24T01:48:05.896Z,11.10
2018-09-24T01:50:34.284Z,11.20
2018-09-24T01:53:04.118Z,11.20
2018-09-24T01:55:32.172Z,11.20
2018-09-24T01:58:00.244Z,11.10
2018-09-24T02:00:28.286Z,10.90
2018-09-24T02:02:56.352Z,10.80
2018-09-24T02:05:24.396Z,10.70
2018-09-24T02:07:52.460Z,10.60
2018-09-24T02:10:23.230Z,10.60
2018-09-24T02:12:52.792Z,10.50
2018-09-24T02:15:29.201Z,10.50
2018-09-24T02:17:57.272Z,10.40
2018-09-24T02:20:25.312Z,10.30
2018-09-24T02:22:53.369Z,10.20
2018-09-24T02:25:21.435Z,10.20
2018-09-24T02:27:49.495Z,10.20
2018-09-24T02:30:18.609Z,10.10
2018-09-24T02:32:46.694Z,10.10
2018-09-24T02:35:14.870Z,9.90
2018-09-24T02:37:42.933Z,9.90
2018-09-24T02:40:18.246Z,9.90
2018-09-24T02:42:46.505Z,9.90
2018-09-24T02:45:14.549Z,9.90
2018-09-24T02:47:42.622Z,10.00
2018-09-24T02:50:10.676Z,10.10
2018-09-24T02:52:38.738Z,10.20
2018-09-24T02:55:16.548Z,10.20
2018-09-24T02:57:44.849Z,10.20
2018-09-24T03:00:16.498Z,10.20
2018-09-24T03:02:44.782Z,10.20
2018-09-24T03:05:12.840Z,10.20
2018-09-24T03:07:40.936Z,10.20
2018-09-24T03:10:09.001Z,10.10
2018-09-24T03:12:37.047Z,10.10
2018-09-24T03:15:05.265Z,10.00
2018-09-24T03:17:33.258Z,10.00
2018-09-24T03:20:01.327Z,9.90
2018-09-24T03:22:29.392Z,9.80
2018-09-24T03:24:57.448Z,9.80
2018-09-24T03:27:25.500Z,9.80
2018-09-24T03:29:53.570Z,9.70
2018-09-24T03:32:21.614Z,9.70
2018-09-24T03:34:49.669Z,9.60
2018-09-24T03:37:17.733Z,9.60
2018-09-24T03:39:45.760Z,9.50
2018-09-24T03:42:13.913Z,9.50
2018-09-24T03:44:41.967Z,9.50
2018-09-24T03:47:16.400Z,9.50
2018-09-24T03:49:44.463Z,9.40
2018-09-24T03:52:12.516Z,9.40
2018-09-24T03:54:40.580Z,9.40
2018-09-24T03:57:08.636Z,9.40
2018-09-24T03:59:36.705Z,9.30
2018-09-24T04:02:04.760Z,9.30
2018-09-24T04:04:38.312Z,9.30
2018-09-24T04:07:11.641Z,9.20
2018-09-24T04:09:45.131Z,9.20
2018-09-24T04:12:18.624Z,9.10
2018-09-24T04:14:52.105Z,9.10
2018-09-24T04:17:25.537Z,9.00
2018-09-24T04:19:58.984Z,9.00
2018-09-24T04:22:32.344Z,9.00
2018-09-24T04:25:05.788Z,8.90
2018-09-24T04:27:39.454Z,8.90
2018-09-24T04:30:13.046Z,8.90
2018-09-24T04:32:46.362Z,8.80
2018-09-24T04:35:19.914Z,8.80
2018-09-24T04:37:53.349Z,8.80
2018-09-24T04:40:26.688Z,8.80
2018-09-24T04:43:00.182Z,8.70
2018-09-24T04:45:33.524Z,8.70
2018-09-24T04:48:06.861Z,8.60
2018-09-24T04:50:40.305Z,8.60
2018-09-24T04:53:13.956Z,8.50
2018-09-24T04:55:47.419Z,8.50
2018-09-24T04:58:20.729Z,8.50
2018-09-24T05:00:54.168Z,8.60
2018-09-24T05:03:27.790Z,8.60
2018-09-24T05:06:01.296Z,8.60
2018-09-24T05:08:34.768Z,8.60
2018-09-24T05:11:08.221Z,8.50
2018-09-24T05:13:41.581Z,8.60
2018-09-24T05:16:15.327Z,8.50
2018-09-24T05:18:48.844Z,8.50
2018-09-24T05:21:22.267Z,8.50
2018-09-24T05:23:55.794Z,8.50
2018-09-24T05:26:29.157Z,8.40
2018-09-24T05:29:02.738Z,8.40
2018-09-24T05:31:36.204Z,8.30
2018-09-24T05:34:09.841Z,8.30
2018-09-24T05:36:43.340Z,8.30
2018-09-24T05:39:16.696Z,8.30
2018-09-24T05:41:50.057Z,8.30
2018-09-24T05:44:23.564Z,8.30
2018-09-24T05:46:57.206Z,8.20
2018-09-24T05:49:31.045Z,8.20
2018-09-24T05:52:04.594Z,8.30
2018-09-24T05:54:38.012Z,8.30
2018-09-24T05:57:11.525Z,8.40
2018-09-24T05:59:44.856Z,8.50
2018-09-24T06:02:18.256Z,8.60
2018-09-24T06:04:51.845Z,8.60
2018-09-24T06:07:25.371Z,8.80
2018-09-24T06:09:58.827Z,8.80
2018-09-24T06:12:32.390Z,8.90
2018-09-24T06:15:06.012Z,9.20
2018-09-24T06:17:39.387Z,9.50
2018-09-24T06:20:12.668Z,9.90
2018-09-24T06:22:46.036Z,10.30
2018-09-24T06:25:19.525Z,10.60
2018-09-24T06:27:52.919Z,10.70
2018-09-24T06:30:26.364Z,10.80
2018-09-24T06:32:59.982Z,10.90
2018-09-24T06:35:33.488Z,11.00
2018-09-24T06:38:06.992Z,10.90
2018-09-24T06:40:40.548Z,10.90
2018-09-24T06:43:14.023Z,10.90
2018-09-24T06:45:47.445Z,10.90
2018-09-24T06:48:20.857Z,11.00
2018-09-24T06:50:54.296Z,11.00
2018-09-24T06:53:27.773Z,11.10
2018-09-24T06:56:01.276Z,11.20
2018-09-24T06:58:34.800Z,11.30
2018-09-24T07:01:08.367Z,11.60
2018-09-24T07:03:41.660Z,11.90
2018-09-24T07:06:15.102Z,12.30
2018-09-24T07:08:48.716Z,12.40
2018-09-24T07:11:22.306Z,13.00
2018-09-24T07:13:55.901Z,14.60
2018-09-24T07:16:29.380Z,16.30
2018-09-24T07:19:02.846Z,16.90
2018-09-24T07:21:36.223Z,17.50
2018-09-24T07:24:09.544Z,18.40
2018-09-24T07:26:42.862Z,18.40
2018-09-24T07:29:16.409Z,18.80
2018-09-24T07:31:50.017Z,19.90
2018-09-24T07:34:23.616Z,20.20
2018-09-24T07:36:57.177Z,21.10
2018-09-24T07:39:30.609Z,22.40
2018-09-24T07:42:03.966Z,23.60
2018-09-24T07:44:37.532Z,24.00
2018-09-24T07:47:10.872Z,23.60
2018-09-24T07:49:44.440Z,23.30
2018-09-24T07:52:17.928Z,22.70
2018-09-24T07:54:51.369Z,23.10
2018-09-24T07:57:24.916Z,22.30
2018-09-24T07:59:58.542Z,21.20
2018-09-24T08:02:31.851Z,20.50
2018-09-24T08:05:05.525Z,20.70
2018-09-24T08:07:38.933Z,20.70
2018-09-24T08:10:12.569Z,22.20
2018-09-24T08:12:45.847Z,24.00
2018-09-24T08:15:19.279Z,25.20
2018-09-24T08:17:52.705Z,26.00
2018-09-24T08:20:26.124Z,26.00
2018-09-24T08:22:59.484Z,25.90
2018-09-24T08:25:33.111Z,26.50
2018-09-24T08:28:06.648Z,27.80
2018-09-24T08:30:39.993Z,29.40
2018-09-24T08:33:13.565Z,31.20
2018-09-24T08:35:47.184Z,31.80
2018-09-24T08:38:20.635Z,32.30
2018-09-24T08:40:54.321Z,33.20
2018-09-24T08:43:27.748Z,33.50
2018-09-24T08:46:01.232Z,33.80
2018-09-24T08:48:34.856Z,34.40
2018-09-24T08:51:08.308Z,34.80
2018-09-24T08:53:41.769Z,34.70
2018-09-24T08:56:15.142Z,34.90
2018-09-24T08:58:48.656Z,35.20
2018-09-24T09:01:22.176Z,36.30
2018-09-24T09:03:55.769Z,37.20
2018-09-24T09:06:29.432Z,37.00
2018-09-24T09:09:03.009Z,36.60
2018-09-24T09:11:36.400Z,37.50
2018-09-24T09:14:09.898Z,37.10
2018-09-24T09:16:43.408Z,35.60
2018-09-24T09:19:16.828Z,34.80
2018-09-24T09:21:50.181Z,33.80
2018-09-24T09:24:23.708Z,32.20
2018-09-24T09:26:57.220Z,30.80
2018-09-24T09:29:30.607Z,31.70
2018-09-24T09:32:04.044Z,32.20
2018-09-24T09:34:37.484Z,32.60
2018-09-24T09:37:11.084Z,33.80
2018-09-24T09:39:44.659Z,34.60
2018-09-24T09:42:18.108Z,33.70
2018-09-24T09:44:51.597Z,31.90
2018-09-24T09:47:25.080Z,29.90
2018-09-24T09:49:58.533Z,28.10
2018-09-24T09:52:31.982Z,26.00
2018-09-24T09:55:05.436Z,24.00
2018-09-24T09:57:39.011Z,22.60
2018-09-24T10:00:12.623Z,21.80
2018-09-24T10:02:46.026Z,23.30
2018-09-24T10:05:19.539Z,24.40
2018-09-24T10:07:53.161Z,27.30
2018-09-24T10:10:26.701Z,30.70
2018-09-24T10:13:00.216Z,33.10
2018-09-24T10:15:33.529Z,34.20
2018-09-24T10:18:07.128Z,35.50
2018-09-24T10:20:40.637Z,36.80
2018-09-24T10:23:13.975Z,36.80
2018-09-24T10:25:47.285Z,35.00
2018-09-24T10:28:20.773Z,33.40
2018-09-24T10:30:54.060Z,33.20
2018-09-24T10:33:27.657Z,31.90
2018-09-24T10:36:01.101Z,29.70
2018-09-24T10:38:34.419Z,27.60
2018-09-24T10:41:07.816Z,27.40
2018-09-24T10:43:41.317Z,29.80
2018-09-24T10:46:15.013Z,32.60
2018-09-24T10:48:48.340Z,35.50
2018-09-24T10:51:21.900Z,37.20
2018-09-24T10:53:55.396Z,38.40
2018-09-24T10:56:29.057Z,38.80
2018-09-24T10:59:03.030Z,38.80
2018-09-24T11:01:36.444Z,37.70
2018-09-24T11:04:10.217Z,37.60
2018-09-24T11:06:43.885Z,37.30
2018-09-24T11:09:18.500Z,35.10
2018-09-24T11:11:52.109Z,32.80
2018-09-24T11:14:25.541Z,30.50
2018-09-24T11:16:59.346Z,29.90
2018-09-24T11:19:32.717Z,28.80
2018-09-24T11:22:06.447Z,27.50
2018-09-24T11:24:39.781Z,26.40
2018-09-24T11:27:13.297Z,25.00
2018-09-24T11:29:46.669Z,24.10
2018-09-24T11:32:19.981Z,23.10
2018-09-24T11:34:53.352Z,22.30
2018-09-24T11:37:26.973Z,21.60
2018-09-24T11:40:00.353Z,21.20
2018-09-24T11:42:33.771Z,22.70
2018-09-24T11:45:07.368Z,26.50
2018-09-24T11:47:40.841Z,29.70
2018-09-24T11:50:14.301Z,32.00
2018-09-24T11:52:47.802Z,33.90
2018-09-24T11:55:21.457Z,35.10
2018-09-24T11:57:55.135Z,36.00
2018-09-24T12:00:28.725Z,36.90
2018-09-24T12:03:02.269Z,37.20
2018-09-24T12:05:35.786Z,37.30
2018-09-24T12:08:09.209Z,38.10
2018-09-24T12:10:42.792Z,38.60
2018-09-24T12:13:16.213Z,38.80
2018-09-24T12:15:49.652Z,38.40
2018-09-24T12:18:23.157Z,38.30
2018-09-24T12:20:56.785Z,36.30
2018-09-24T12:23:30.136Z,34.50
2018-09-24T12:26:03.648Z,33.60
2018-09-24T12:28:36.996Z,33.40
2018-09-24T12:31:10.632Z,32.60
2018-09-24T12:33:44.148Z,31.00
2018-09-24T12:36:17.668Z,29.20
2018-09-24T12:38:51.125Z,27.90
2018-09-24T12:41:24.672Z,28.20
2018-09-24T12:43:58.120Z,27.30
2018-09-24T12:46:31.581Z,26.10
2018-09-24T12:49:05.096Z,24.90
2018-09-24T12:51:38.716Z,25.80
2018-09-24T12:54:12.205Z,28.30
2018-09-24T12:56:45.761Z,29.70
2018-09-24T12:59:19.352Z,30.80
2018-09-24T13:01:52.863Z,29.90
2018-09-24T13:04:26.363Z,28.50
2018-09-24T13:06:59.689Z,27.30
2018-09-24T13:09:33.027Z,26.10
2018-09-24T13:12:06.480Z,25.30
2018-09-24T13:14:39.933Z,24.70
2018-09-24T13:17:13.413Z,24.50
2018-09-24T13:19:46.772Z,24.70
2018-09-24T13:22:20.359Z,25.10
2018-09-24T13:24:53.729Z,24.60
2018-09-24T13:27:27.265Z,24.00
2018-09-24T13:30:00.717Z,23.30
2018-09-24T13:32:34.227Z,22.70
2018-09-24T13:35:07.776Z,22.60
2018-09-24T13:37:41.280Z,22.80
2018-09-24T13:40:14.701Z,22.90
2018-09-24T13:42:48.357Z,22.80
2018-09-24T13:45:21.916Z,22.70
2018-09-24T13:47:55.396Z,22.60
2018-09-24T13:50:28.851Z,22.40
2018-09-24T13:53:02.376Z,22.30
2018-09-24T13:55:35.869Z,22.20
2018-09-24T13:58:09.549Z,22.00
2018-09-24T14:00:43.017Z,21.90
2018-09-24T14:03:16.496Z,21.90
2018-09-24T14:05:50.037Z,21.80
2018-09-24T14:08:23.441Z,21.80
2018-09-24T14:10:56.864Z,21.80
2018-09-24T14:13:30.177Z,21.70
2018-09-24T14:16:03.699Z,21.80
2018-09-24T14:18:37.191Z,21.90
2018-09-24T14:21:10.752Z,21.90
2018-09-24T14:23:44.225Z,21.90
2018-09-24T14:26:17.721Z,21.80
2018-09-24T14:28:51.224Z,21.80
2018-09-24T14:31:24.573Z,21.60
2018-09-24T14:33:58.076Z,21.30
2018-09-24T14:36:31.476Z,21.10
2018-09-24T14:39:04.978Z,21.00
2018-09-24T14:41:38.494Z,20.90
2018-09-24T14:44:12.176Z,21.00
2018-09-24T14:46:45.748Z,21.10
2018-09-24T14:49:19.117Z,21.10
2018-09-24T14:51:52.613Z,20.80
2018-09-24T14:54:25.997Z,20.40
2018-09-24T14:56:59.444Z,20.10
2018-09-24T14:59:32.904Z,19.80
2018-09-24T15:02:06.441Z,19.30
2018-09-24T15:04:39.997Z,18.90
2018-09-24T15:07:13.742Z,18.40
2018-09-24T15:09:47.282Z,18.20
2018-09-24T15:12:20.906Z,18.10
2018-09-24T15:14:54.136Z,18.10
2018-09-24T15:17:27.571Z,18.10
2018-09-24T15:20:01.048Z,18.20
2018-09-24T15:22:34.589Z,18.40
2018-09-24T15:25:08.082Z,18.40
2018-09-24T15:27:41.660Z,18.50
2018-09-24T15:30:15.212Z,18.40
2018-09-24T15:32:49.076Z,18.30
2018-09-24T15:35:22.578Z,18.10
2018-09-24T15:37:56.216Z,17.90
2018-09-24T15:40:29.501Z,17.70
2018-09-24T15:43:02.967Z,17.50
2018-09-24T15:45:36.511Z,17.40
2018-09-24T15:48:10.181Z,17.30
2018-09-24T15:50:43.748Z,17.30
2018-09-24T15:53:17.244Z,17.30
2018-09-24T15:55:50.788Z,17.40
2018-09-24T15:58:24.262Z,17.30
2018-09-24T16:00:57.844Z,17.30
2018-09-24T16:03:31.449Z,17.20
2018-09-24T16:06:05.005Z,17.20
2018-09-24T16:08:38.428Z,17.10
2018-09-24T16:11:12.084Z,17.10
2018-09-24T16:13:45.685Z,17.00
2018-09-24T16:16:18.988Z,17.00
2018-09-24T16:18:52.651Z,16.90
2018-09-24T16:21:25.977Z,16.80
2018-09-24T16:23:59.456Z,16.70
2018-09-24T16:26:32.918Z,16.60
2018-09-24T16:29:06.360Z,16.50
2018-09-24T16:31:39.852Z,16.40
2018-09-24T16:34:13.473Z,16.30
2018-09-24T16:36:46.952Z,16.20
2018-09-24T16:39:20.369Z,16.00
2018-09-24T16:41:53.917Z,15.90
2018-09-24T16:44:27.560Z,15.90
2018-09-24T16:47:01.134Z,15.80
2018-09-24T16:49:34.500Z,15.70
2018-09-24T16:52:07.824Z,15.50
2018-09-24T16:54:41.252Z,15.20
2018-09-24T16:57:14.741Z,15.10
2018-09-24T16:59:48.330Z,14.90
2018-09-24T17:02:21.900Z,14.80
2018-09-24T17:04:55.520Z,14.60
2018-09-24T17:07:29.024Z,14.50
2018-09-24T17:10:02.419Z,14.40
2018-09-24T17:12:35.844Z,14.20
2018-09-24T17:15:09.349Z,14.10
2018-09-24T17:17:42.976Z,14.00
2018-09-24T17:20:16.529Z,14.00
2018-09-24T17:22:50.041Z,13.90
2018-09-24T17:25:23.612Z,13.80
2018-09-24T17:27:57.133Z,13.70
2018-09-24T17:30:30.770Z,13.70
2018-09-24T17:33:04.081Z,13.60
2018-09-24T17:35:37.726Z,13.50
2018-09-24T17:38:11.300Z,13.50
2018-09-24T17:40:44.736Z,13.40
2018-09-24T17:43:18.281Z,13.30
2018-09-24T17:45:51.641Z,13.20
2018-09-24T17:48:25.188Z,13.10
2018-09-24T17:50:58.758Z,13.00
2018-09-24T17:53:32.121Z,12.90
2018-09-24T17:56:05.716Z,12.90
2018-09-24T17:58:39.333Z,12.90
2018-09-24T18:01:12.696Z,12.80
2018-09-24T18:03:46.138Z,12.80
2018-09-24T18:06:19.568Z,12.70
2018-09-24T18:08:52.892Z,12.70
2018-09-24T18:11:26.197Z,12.70
2018-09-24T18:13:59.715Z,12.60
2018-09-24T18:16:33.136Z,12.50
2018-09-24T18:19:06.784Z,12.50
2018-09-24T18:21:40.444Z,12.40
2018-09-24T18:24:13.905Z,12.40
2018-09-24T18:26:47.553Z,12.30
2018-09-24T18:29:21.039Z,12.30
2018-09-24T18:31:54.473Z,12.20
2018-09-24T18:34:27.908Z,12.10
2018-09-24T18:37:01.620Z,12.10
2018-09-24T18:39:35.047Z,12.00
2018-09-24T18:42:08.464Z,12.00
2018-09-24T18:44:42.132Z,12.00
2018-09-24T18:47:15.606Z,11.90
2018-09-24T18:49:49.092Z,11.90
2018-09-24T18:52:22.513Z,11.80
2018-09-24T18:54:55.940Z,11.80
2018-09-24T18:57:29.400Z,11.80
2018-09-24T19:00:03.000Z,11.80
2018-09-24T19:02:36.613Z,11.80
2018-09-24T19:05:10.169Z,11.90
2018-09-24T19:07:43.677Z,11.90
2018-09-24T19:10:17.128Z,12.00
2018-09-24T19:12:50.697Z,12.00
2018-09-24T19:15:24.237Z,12.00
2018-09-24T19:17:57.632Z,12.00
2018-09-24T19:20:31.196Z,12.10
2018-09-24T19:23:04.973Z,12.10
2018-09-24T19:25:38.741Z,12.10
2018-09-24T19:28:12.373Z,12.10
2018-09-24T19:30:46.950Z,12.10
2018-09-24T19:33:20.720Z,12.10
2018-09-24T19:35:54.152Z,12.10
2018-09-24T19:38:27.645Z,12.00
2018-09-24T19:41:01.129Z,12.00
2018-09-24T19:43:34.780Z,11.90
2018-09-24T19:46:08.421Z,11.90
2018-09-24T19:48:41.862Z,11.90
2018-09-24T19:51:15.350Z,11.90
2018-09-24T19:53:49.076Z,11.90
2018-09-24T19:56:22.849Z,11.80
2018-09-24T19:58:56.251Z,11.80
2018-09-24T20:01:29.967Z,11.70
2018-09-24T20:04:03.591Z,11.60
2018-09-24T20:06:36.956Z,11.60
2018-09-24T20:09:13.288Z,11.60
2018-09-24T20:11:46.899Z,11.60
2018-09-24T20:14:20.355Z,11.50
2018-09-24T20:16:54.053Z,11.50
2018-09-24T20:19:27.658Z,11.40
2018-09-24T20:22:01.259Z,11.30
2018-09-24T20:24:34.849Z,11.20
2018-09-24T20:27:08.745Z,11.20
2018-09-24T20:29:42.086Z,11.10
2018-09-24T20:32:15.572Z,11.00
2018-09-24T20:34:49.082Z,10.90
2018-09-24T20:37:22.577Z,10.80
2018-09-24T20:39:56.242Z,10.80
2018-09-24T20:42:29.665Z,10.70
2018-09-24T20:45:03.011Z,10.60
2018-09-24T20:47:36.621Z,10.50
2018-09-24T20:50:10.176Z,10.40
2018-09-24T20:52:43.584Z,10.30
2018-09-24T20:55:17.229Z,10.20
2018-09-24T20:57:50.720Z,10.20
2018-09-24T21:00:24.084Z,10.10
2018-09-24T21:02:57.646Z,10.00
2018-09-24T21:05:31.250Z,9.90
2018-09-24T21:08:04.757Z,9.80
2018-09-24T21:10:38.460Z,9.80
2018-09-24T21:13:11.921Z,9.70
2018-09-24T21:15:45.527Z,9.70
2018-09-24T21:18:19.185Z,9.60
2018-09-24T21:20:52.644Z,9.60
2018-09-24T21:23:26.045Z,9.50
2018-09-24T21:25:59.576Z,9.50
2018-09-24T21:28:32.980Z,9.40
2018-09-24T21:31:06.561Z,9.30
2018-09-24T21:33:40.242Z,9.30
2018-09-24T21:36:13.874Z,9.20
2018-09-24T21:38:47.508Z,9.20
2018-09-24T21:41:21.043Z,9.10
2018-09-24T21:43:54.669Z,9.00
2018-09-24T21:46:35.480Z,9.00
2018-09-24T21:49:08.871Z,9.00
2018-09-24T21:51:42.260Z,8.90
2018-09-24T21:54:15.936Z,8.90
2018-09-24T21:56:49.452Z,8.90
2018-09-24T21:59:23.022Z,8.80
2018-09-24T22:01:56.609Z,8.80
2018-09-24T22:04:30.073Z,8.80
2018-09-24T22:07:03.545Z,8.70
2018-09-24T22:09:36.805Z,8.70
2018-09-24T22:12:10.337Z,8.60
2018-09-24T22:14:43.865Z,8.60
2018-09-24T22:17:17.296Z,8.50
2018-09-24T22:19:50.933Z,8.40
2018-09-24T22:22:24.474Z,8.30
2018-09-24T22:24:58.128Z,8.30
2018-09-24T22:27:31.629Z,8.20
2018-09-24T22:30:05.199Z,8.20
2018-09-24T22:32:38.689Z,8.10
2018-09-24T22:35:12.215Z,8.00
2018-09-24T22:37:45.676Z,8.00
2018-09-24T22:40:19.204Z,8.00
2018-09-24T22:42:52.680Z,8.00
2018-09-24T22:45:26.008Z,8.00
2018-09-24T22:47:59.299Z,7.90
2018-09-24T22:50:32.837Z,7.90
2018-09-24T22:53:06.242Z,7.90
2018-09-24T22:55:39.898Z,7.90
2018-09-24T22:58:13.753Z,7.80
2018-09-24T23:00:47.177Z,7.80
2018-09-24T23:03:20.612Z,7.80
2018-09-24T23:05:54.057Z,7.80
2018-09-24T23:08:27.425Z,7.80
2018-09-24T23:11:00.865Z,7.80
2018-09-24T23:13:34.313Z,7.80
2018-09-24T23:16:07.793Z,7.80
2018-09-24T23:18:41.239Z,7.80
2018-09-24T23:21:14.886Z,7.80
2018-09-24T23:23:48.524Z,7.80
2018-09-24T23:26:21.915Z,7.80
2018-09-24T23:28:55.461Z,7.80
2018-09-24T23:31:28.949Z,7.80
2018-09-24T23:34:02.437Z,7.80
2018-09-24T23:36:36.081Z,7.80
2018-09-24T23:39:11.020Z,7.80
2018-09-24T23:41:44.484Z,7.80
2018-09-24T23:44:18.165Z,7.80
2018-09-24T23:46:51.518Z,7.80
2018-09-24T23:49:25.017Z,7.70
2018-09-24T23:51:58.481Z,7.70
2018-09-24T23:54:32.077Z,7.60
2018-09-24T23:57:05.664Z,7.50
2018-09-24T23:59:39.193Z,7.50
